Time;durP1;ratioP1;P1;durP2;ratioP2;P2;SDS_P1;SDS_P2;PMS_P1;PMS_P2;Temp;Humidity;BMP_temperature;BMP_pressure;BME280_temperature;BME280_humidity;BME280_pressure;Samples;Min_cycle;Max_cycle;Signal;HPM_P1;HPM_P2
2021/12/20 00:01:44;;;;;;;10.20;8.63;;;;;;;3.32;100.00;101264.69;5023509;28;20195;-55
2021/12/20 00:04:10;;;;;;;10.03;8.97;;;;;;;3.31;100.00;101264.66;5025594;28;20261;-55
2021/12/20 00:06:35;;;;;;;11.07;8.97;;;;;;;3.30;100.00;101261.22;5020575;28;20211;-55
2021/12/20 00:09:00;;;;;;;10.03;8.97;;;;;;;3.31;100.00;101255.28;5019246;28;20200;-55
2021/12/20 00:11:26;;;;;;;10.57;9.43;;;;;;;3.31;100.00;101245.03;5023715;28;20191;-55
2021/12/20 00:13:51;;;;;;;12.07;10.30;;;;;;;3.31;100.00;101254.41;5021329;28;20187;-55
2021/12/20 00:16:17;;;;;;;14.40;10.50;;;;;;;3.30;100.00;101252.69;5025768;28;20656;-55
2021/12/20 00:18:43;;;;;;;12.00;10.47;;;;;;;3.26;100.00;101246.56;5027393;28;20333;-55
2021/12/20 00:21:09;;;;;;;12.97;11.20;;;;;;;3.22;100.00;101247.28;5024858;28;20191;-55
2021/12/20 00:23:35;;;;;;;12.13;10.53;;;;;;;3.21;100.00;101242.97;5027919;28;20234;-54
2021/12/20 00:26:00;;;;;;;11.67;9.87;;;;;;;3.21;100.00;101232.75;5024781;28;20265;-55
2021/12/20 00:28:25;;;;;;;13.40;10.80;;;;;;;3.20;100.00;101241.22;5028820;28;20204;-55
2021/12/20 00:30:51;;;;;;;12.43;10.23;;;;;;;3.20;100.00;101242.09;5028643;28;20194;-54
2021/12/20 00:33:16;;;;;;;12.13;10.53;;;;;;;3.20;100.00;101242.09;5028817;28;20196;-55
2021/12/20 00:35:42;;;;;;;14.33;11.23;;;;;;;3.18;100.00;101236.03;5022121;28;20187;-55
2021/12/20 00:40:51;;;;;;;12.03;10.23;;;;;;;3.19;100.00;101240.34;5022770;28;20191;-54
2021/12/20 00:43:17;;;;;;;13.10;10.93;;;;;;;3.20;100.00;101243.78;5023118;28;20204;-54
2021/12/20 00:45:43;;;;;;;14.07;11.33;;;;;;;3.19;100.00;101234.38;5026657;28;20212;-55
2021/12/20 00:48:08;;;;;;;14.10;12.13;;;;;;;3.17;100.00;101230.88;5025803;28;20315;-54
2021/12/20 00:50:34;;;;;;;15.57;12.17;;;;;;;3.17;100.00;101228.31;5025523;28;20266;-55
2021/12/20 00:53:00;;;;;;;16.33;12.77;;;;;;;3.14;100.00;101226.53;5024457;28;20738;-55
2021/12/20 00:55:27;;;;;;;17.17;14.27;;;;;;;3.12;100.00;101219.59;5025919;28;20262;-55
2021/12/20 00:57:56;;;;;;;16.97;13.00;;;;;;;3.10;100.00;101226.38;5027469;28;20297;-54
2021/12/20 01:00:24;;;;;;;18.90;14.50;;;;;;;3.05;100.00;101216.84;5027254;28;20211;-54
2021/12/20 01:02:50;;;;;;;17.23;12.73;;;;;;;3.05;100.00;101226.19;5025683;28;20555;-54
2021/12/20 01:05:17;;;;;;;17.70;13.17;;;;;;;3.06;100.00;101227.94;5023885;28;20614;-55
2021/12/20 01:07:42;;;;;;;17.63;13.60;;;;;;;3.03;100.00;101218.47;5027809;28;20255;-54
2021/12/20 01:10:09;;;;;;;15.80;12.90;;;;;;;3.04;100.00;101212.53;5022483;28;20188;-55
2021/12/20 01:13:10;;;;;;;17.33;13.20;;;;;;;3.05;100.00;101206.59;5025694;28;20622;-55
2021/12/20 01:15:45;;;;;;;17.17;13.30;;;;;;;3.03;100.00;101204.78;5021460;28;20466;-54
2021/12/20 01:18:10;;;;;;;17.70;12.77;;;;;;;3.02;100.00;101206.50;5026166;28;20211;-55
2021/12/20 01:20:36;;;;;;;18.57;14.03;;;;;;;3.02;100.00;101208.19;5025296;28;20301;-55
2021/12/20 01:23:03;;;;;;;18.77;13.90;;;;;;;3.02;100.00;101203.94;5026318;28;20593;-55
2021/12/20 01:25:28;;;;;;;20.37;15.17;;;;;;;3.02;100.00;101210.75;5024900;28;20257;-55
2021/12/20 01:27:54;;;;;;;21.23;14.87;;;;;;;3.00;100.00;101200.44;5044683;28;20203;-55
2021/12/20 01:30:22;;;;;;;18.50;13.93;;;;;;;3.00;100.00;101202.16;5028145;28;20660;-55
2021/12/20 01:32:48;;;;;;;18.80;14.57;;;;;;;2.98;100.00;101211.44;5027096;28;20179;-55
2021/12/20 01:35:15;;;;;;;17.43;13.33;;;;;;;2.98;100.00;101203.78;5025304;28;20176;-55
2021/12/20 01:37:41;;;;;;;18.33;13.80;;;;;;;2.99;100.00;101203.81;5023579;28;20594;-55
2021/12/20 01:40:09;;;;;;;20.00;15.47;;;;;;;2.99;100.00;101203.81;5026824;28;20281;-55
2021/12/20 01:42:36;;;;;;;19.20;14.07;;;;;;;2.98;100.00;101204.63;5025303;28;20215;-54
2021/12/20 01:45:05;;;;;;;21.17;15.13;;;;;;;2.98;100.00;101204.63;5023330;28;20250;-55
2021/12/20 01:47:35;;;;;;;19.43;14.93;;;;;;;3.00;100.00;101208.13;5024537;28;20749;-55
2021/12/20 01:50:06;;;;;;;16.47;13.10;;;;;;;3.00;100.00;101214.94;5026976;28;20184;-55
2021/12/20 01:52:40;;;;;;;18.70;14.23;;;;;;;2.99;100.00;101200.41;5028852;28;20224;-54
2021/12/20 01:55:23;;;;;;;17.47;14.47;;;;;;;2.98;100.00;101199.50;5023978;28;20194;-55
2021/12/20 01:57:49;;;;;;;18.27;13.93;;;;;;;2.99;100.00;101193.59;5027481;28;20199;-54
2021/12/20 02:00:28;;;;;;;17.50;14.10;;;;;;;3.00;100.00;101191.91;5029008;28;20234;-55
2021/12/20 02:02:59;;;;;;;17.37;13.77;;;;;;;3.01;100.00;101188.53;5024276;28;20192;-54
2021/12/20 02:05:46;;;;;;;18.03;14.73;;;;;;;2.99;100.00;101185.91;5023950;28;20596;-54
2021/12/20 02:08:26;;;;;;;16.53;13.53;;;;;;;2.95;100.00;101199.38;5026244;28;20212;-55
2021/12/20 02:11:09;;;;;;;16.73;14.13;;;;;;;2.95;100.00;101194.28;5028442;28;20249;-54
2021/12/20 02:13:36;;;;;;;18.90;14.53;;;;;;;2.96;100.00;101196.03;5026149;28;20191;-55
2021/12/20 02:16:02;;;;;;;19.60;14.30;;;;;;;2.96;100.00;101195.16;5022493;28;20659;-55
2021/12/20 02:18:30;;;;;;;20.33;15.30;;;;;;;2.95;100.00;101188.31;5026543;28;20211;-54
2021/12/20 02:20:56;;;;;;;19.80;15.33;;;;;;;2.93;100.00;101193.38;5027823;28;20644;-55
2021/12/20 02:23:22;;;;;;;20.47;14.70;;;;;;;2.92;100.00;101198.41;5025832;28;20258;-54
2021/12/20 02:25:48;;;;;;;19.07;15.60;;;;;;;2.91;100.00;101187.34;5024543;28;20570;-54
2021/12/20 02:28:16;;;;;;;18.00;14.13;;;;;;;2.91;100.00;101184.78;5019838;28;20843;-54
2021/12/20 02:38:37;;;;;;;17.87;13.97;;;;;;;2.90;100.00;101170.25;5045296;28;20218;-54
2021/12/20 02:41:12;;;;;;;20.50;15.47;;;;;;;2.92;100.00;101176.28;5045023;28;20560;-54
2021/12/20 02:43:43;;;;;;;20.63;16.43;;;;;;;2.88;100.00;101184.66;5046585;28;20211;-56
2021/12/20 02:48:52;;;;;;;21.07;16.03;;;;;;;2.85;100.00;101185.41;5025431;28;20718;-56
2021/12/20 02:51:17;;;;;;;18.83;14.80;;;;;;;2.85;100.00;101176.88;5027258;28;20187;-54
2021/12/20 02:53:43;;;;;;;21.77;16.53;;;;;;;2.85;100.00;101174.31;5024959;28;20194;-54
2021/12/20 02:56:08;;;;;;;20.87;16.17;;;;;;;2.86;100.00;101164.16;5026112;28;20638;-55
2021/12/20 02:58:33;;;;;;;23.10;17.53;;;;;;;2.83;100.00;101173.38;5024597;28;20214;-55
2021/12/20 03:00:59;;;;;;;24.50;17.30;;;;;;;2.82;100.00;101169.06;5025209;28;20199;-55
2021/12/20 03:03:25;;;;;;;24.77;17.40;;;;;;;2.78;100.00;101169.81;5024653;28;20214;-54
2021/12/20 03:05:51;;;;;;;21.13;16.77;;;;;;;2.72;100.00;101166.19;5022586;28;20210;-55
2021/12/20 03:08:16;;;;;;;19.87;16.23;;;;;;;2.72;100.00;101163.63;5025489;28;20699;-55
2021/12/20 03:10:42;;;;;;;22.33;16.47;;;;;;;2.72;100.00;101167.88;5021776;28;20245;-55
2021/12/20 03:13:10;;;;;;;22.30;16.70;;;;;;;2.73;100.00;101161.94;5023453;28;20187;-56
2021/12/20 03:15:35;;;;;;;22.67;17.77;;;;;;;2.69;100.00;101162.66;5024727;28;20181;-54
2021/12/20 03:18:01;;;;;;;22.20;17.13;;;;;;;2.67;100.00;101157.47;5027854;28;20222;-55
2021/12/20 03:20:26;;;;;;;21.53;17.33;;;;;;;2.66;100.00;101162.53;5027687;28;20199;-55
2021/12/20 03:22:51;;;;;;;22.50;17.83;;;;;;;2.66;100.00;101167.66;5019107;28;20242;-55
2021/12/20 03:25:18;;;;;;;22.33;17.33;;;;;;;2.65;100.00;101158.22;5018068;28;20241;-55
2021/12/20 03:27:43;;;;;;;25.43;18.43;;;;;;;2.64;100.00;101159.03;5019264;28;20573;-55
2021/12/20 03:30:12;;;;;;;22.97;17.60;;;;;;;2.63;100.00;101160.75;5026960;28;21042;-55
2021/12/20 03:32:37;;;;;;;25.23;18.70;;;;;;;2.64;100.00;101159.03;5020709;28;20274;-55
2021/12/20 03:35:04;;;;;;;25.40;19.20;;;;;;;2.64;100.00;101152.28;5025560;28;21030;-55
2021/12/20 03:37:29;;;;;;;25.17;18.53;;;;;;;2.64;100.00;101153.94;5021288;28;20246;-55
2021/12/20 03:39:56;;;;;;;24.33;18.00;;;;;;;2.63;100.00;101159.84;5037750;28;20278;-55
2021/12/20 03:42:22;;;;;;;23.97;17.87;;;;;;;2.62;100.00;101165.78;5021580;28;20743;-54
2021/12/20 03:44:47;;;;;;;23.60;17.67;;;;;;;2.62;100.00;101163.22;5020568;28;20265;-55
2021/12/20 03:47:13;;;;;;;23.57;17.43;;;;;;;2.62;100.00;101166.66;5023696;28;20215;-55
2021/12/20 03:49:41;;;;;;;24.67;17.33;;;;;;;2.64;100.00;101169.28;5033647;28;20247;-54
2021/12/20 03:52:07;;;;;;;27.83;19.73;;;;;;;2.62;100.00;101159.00;5040452;28;20191;-55
2021/12/20 03:54:33;;;;;;;25.50;19.07;;;;;;;2.63;100.00;101162.41;5027411;28;20207;-54
2021/12/20 03:56:59;;;;;;;26.23;19.13;;;;;;;2.61;100.00;101156.38;5025542;28;20247;-56
2021/12/20 03:59:24;;;;;;;23.77;17.97;;;;;;;2.58;100.00;101167.34;5026662;28;20291;-54
2021/12/20 04:01:50;;;;;;;24.13;17.13;;;;;;;2.58;100.00;101160.53;5021643;28;20270;-53
2021/12/20 04:04:16;;;;;;;24.50;16.97;;;;;;;2.62;100.00;101156.44;5022029;28;20755;-55
2021/12/20 04:06:42;;;;;;;25.00;16.67;;;;;;;2.65;100.00;101166.75;5021180;28;20301;-55
2021/12/20 04:09:07;;;;;;;23.27;17.07;;;;;;;2.67;100.00;101171.94;5021691;28;20206;-54
2021/12/20 04:11:33;;;;;;;22.70;16.60;;;;;;;2.68;100.00;101166.88;5023365;28;20264;-54
2021/12/20 04:13:58;;;;;;;18.93;14.53;;;;;;;2.69;100.00;101158.41;5018867;28;20218;-54
2021/12/20 04:16:24;;;;;;;20.87;16.10;;;;;;;2.71;100.00;101164.44;5024076;28;20594;-54
2021/12/20 04:18:49;;;;;;;21.17;16.43;;;;;;;2.72;100.00;101160.22;5023921;28;20194;-54
2021/12/20 04:21:15;;;;;;;19.90;15.13;;;;;;;2.72;100.00;101155.97;5020002;28;20652;-55
2021/12/20 04:23:40;;;;;;;20.87;15.63;;;;;;;2.73;100.00;101160.25;5020875;28;20216;-53
2021/12/20 04:26:06;;;;;;;19.97;15.27;;;;;;;2.75;100.00;101157.75;5018889;28;20353;-53
2021/12/20 04:28:32;;;;;;;19.67;15.07;;;;;;;2.76;100.00;101158.63;5020742;28;20337;-54
2021/12/20 04:30:58;;;;;;;20.27;14.87;;;;;;;2.75;100.00;101152.66;5022884;28;20219;-54
2021/12/20 04:33:23;;;;;;;20.67;15.37;;;;;;;2.74;100.00;101156.00;5023931;28;20603;-55
2021/12/20 04:35:49;;;;;;;22.10;16.20;;;;;;;2.75;100.00;101157.75;5020288;28;20187;-54
2021/12/20 04:38:15;;;;;;;21.40;15.07;;;;;;;2.74;100.00;101156.00;5020085;28;20199;-56
2021/12/20 04:40:40;;;;;;;20.07;14.93;;;;;;;2.76;100.00;101156.09;5019996;28;20184;-54
2021/12/20 04:43:06;;;;;;;22.03;16.17;;;;;;;2.79;100.00;101156.22;5022737;28;20282;-54
2021/12/20 04:45:33;;;;;;;19.87;16.03;;;;;;;2.79;100.00;101161.31;5021393;28;20206;-56
2021/12/20 04:47:59;;;;;;;20.27;15.37;;;;;;;2.79;100.00;101161.31;5022109;28;20679;-55
2021/12/20 04:50:26;;;;;;;19.80;14.50;;;;;;;2.79;100.00;101143.41;5020169;28;20581;-55
2021/12/20 04:52:54;;;;;;;23.70;16.10;;;;;;;2.78;100.00;101152.75;5020012;28;20748;-55
2021/12/20 04:55:19;;;;;;;21.47;16.67;;;;;;;2.78;100.00;101154.47;5023603;28;20207;-55
2021/12/20 04:57:47;;;;;;;23.03;17.37;;;;;;;2.78;100.00;101151.91;5019810;28;20234;-55
2021/12/20 05:00:16;;;;;;;20.73;17.23;;;;;;;2.74;100.00;101153.44;5021581;28;20625;-56
2021/12/20 05:02:42;;;;;;;21.47;16.37;;;;;;;2.73;100.00;101159.38;5023372;28;20603;-55
2021/12/20 05:05:09;;;;;;;20.10;15.80;;;;;;;2.72;100.00;101157.66;5023655;28;20225;-55
2021/12/20 05:07:34;;;;;;;20.80;16.17;;;;;;;2.73;100.00;101160.25;5023693;28;20295;-55
2021/12/20 05:10:02;;;;;;;20.37;15.73;;;;;;;2.72;100.00;101155.97;5025757;28;20286;-55
2021/12/20 05:12:28;;;;;;;20.63;15.70;;;;;;;2.73;100.00;101146.59;5022094;28;20195;-56
2021/12/20 05:14:53;;;;;;;19.23;14.63;;;;;;;2.74;100.00;101162.00;5021494;28;20262;-53
2021/12/20 05:17:19;;;;;;;19.90;15.50;;;;;;;2.77;100.00;101168.06;5022859;28;20218;-54
2021/12/20 05:19:44;;;;;;;18.77;15.10;;;;;;;2.75;100.00;101157.75;5027340;28;20197;-55
2021/12/20 05:22:11;;;;;;;19.30;15.23;;;;;;;2.76;100.00;101156.09;5028214;28;20532;-56
2021/12/20 05:24:38;;;;;;;19.77;15.27;;;;;;;2.76;100.00;101153.53;5021842;28;20196;-53
2021/12/20 05:27:04;;;;;;;19.90;14.53;;;;;;;2.77;100.00;101160.38;5023878;28;20207;-54
2021/12/20 05:29:29;;;;;;;18.93;14.83;;;;;;;2.77;100.00;101158.69;5023089;28;20205;-54
2021/12/20 05:31:55;;;;;;;18.20;14.03;;;;;;;2.78;100.00;101159.56;5020569;28;20184;-53
2021/12/20 05:34:21;;;;;;;18.57;14.47;;;;;;;2.80;100.00;101158.81;5021069;28;20215;-56
2021/12/20 05:36:46;;;;;;;18.80;15.13;;;;;;;2.81;100.00;101154.56;5022377;28;20203;-53
2021/12/20 05:39:12;;;;;;;18.97;14.13;;;;;;;2.82;100.00;101161.41;5024099;28;20188;-54
2021/12/20 05:41:38;;;;;;;17.50;13.53;;;;;;;2.83;100.00;101158.94;5021552;28;20187;-54
2021/12/20 05:44:03;;;;;;;18.63;14.17;;;;;;;2.83;100.00;101161.47;5027553;28;20195;-54
2021/12/20 05:46:29;;;;;;;17.30;13.57;;;;;;;2.84;100.00;101170.00;5028084;28;20211;-54
2021/12/20 05:48:54;;;;;;;17.17;13.83;;;;;;;2.84;100.00;101167.44;5018961;28;20193;-54
2021/12/20 05:51:20;;;;;;;16.27;13.57;;;;;;;2.83;100.00;101164.03;5021525;28;20578;-54
2021/12/20 05:53:45;;;;;;;16.50;13.80;;;;;;;2.83;100.00;101166.59;5024991;28;20678;-57
2021/12/20 05:56:11;;;;;;;17.50;13.67;;;;;;;2.84;100.00;101165.78;5023377;28;20283;-54
2021/12/20 05:58:36;;;;;;;17.07;13.70;;;;;;;2.84;100.00;101168.34;5026441;28;20226;-56
2021/12/20 06:01:02;;;;;;;19.47;15.27;;;;;;;2.87;100.00;101177.78;5030818;28;20187;-55
2021/12/20 06:03:27;;;;;;;20.20;15.53;;;;;;;2.87;100.00;101177.78;5026464;28;20183;-55
2021/12/20 06:05:53;;;;;;;18.00;14.60;;;;;;;2.87;100.00;101188.03;5011923;28;20677;-54
2021/12/20 06:08:18;;;;;;;17.97;14.73;;;;;;;2.84;100.00;101186.22;5021304;28;20207;-54
2021/12/20 06:10:44;;;;;;;18.43;14.43;;;;;;;2.84;100.00;101183.69;5017317;28;20191;-54
2021/12/20 06:13:09;;;;;;;19.73;15.37;;;;;;;2.84;100.00;101182.78;5026571;28;20191;-53
2021/12/20 06:15:34;;;;;;;20.23;15.93;;;;;;;2.82;100.00;101179.31;5024811;28;20183;-55
2021/12/20 06:18:00;;;;;;;21.27;16.03;;;;;;;2.81;100.00;101180.13;5016055;28;20897;-54
2021/12/20 06:20:26;;;;;;;19.50;14.83;;;;;;;2.81;100.00;101182.66;5028908;28;20191;-54
2021/12/20 06:22:51;;;;;;;20.63;15.37;;;;;;;2.78;100.00;101178.31;5029158;28;20476;-54
2021/12/20 06:25:18;;;;;;;20.27;15.60;;;;;;;2.79;100.00;101182.63;5029139;28;20211;-55
2021/12/20 06:27:44;;;;;;;18.23;13.90;;;;;;;2.78;100.00;101180.03;5026307;28;20558;-55
2021/12/20 06:30:11;;;;;;;17.20;14.27;;;;;;;2.79;100.00;101181.78;5029241;28;20194;-54
2021/12/20 06:32:41;;;;;;;18.00;14.03;;;;;;;2.80;100.00;101186.06;5023116;28;20199;-55
2021/12/20 06:35:08;;;;;;;19.37;15.10;;;;;;;2.79;100.00;101192.00;5022615;28;20559;-54
2021/12/20 06:37:34;;;;;;;19.27;15.03;;;;;;;2.79;100.00;101184.31;5023923;28;20212;-54
2021/12/20 06:39:59;;;;;;;19.17;14.37;;;;;;;2.79;100.00;101185.19;5023588;28;20222;-54
2021/12/20 06:42:25;;;;;;;18.27;14.53;;;;;;;2.78;100.00;101182.59;5021234;28;20195;-55
2021/12/20 06:44:51;;;;;;;19.77;14.83;;;;;;;2.78;100.00;101187.69;5023512;28;20212;-55
2021/12/20 06:47:18;;;;;;;17.47;13.70;;;;;;;2.80;100.00;101188.63;5023107;28;20227;-54
2021/12/20 06:49:43;;;;;;;20.57;15.53;;;;;;;2.80;100.00;101188.63;5024238;28;20215;-56
2021/12/20 06:52:09;;;;;;;20.33;15.77;;;;;;;2.80;100.00;101192.03;5023988;28;20187;-56
2021/12/20 06:54:34;;;;;;;18.03;14.37;;;;;;;2.79;100.00;101179.22;5025572;28;20199;-54
2021/12/20 06:57:00;;;;;;;18.37;14.03;;;;;;;2.78;100.00;101186.00;5028704;28;20695;-54
2021/12/20 06:59:25;;;;;;;19.83;15.40;;;;;;;2.80;100.00;101188.63;5023902;28;20219;-55
2021/12/20 07:01:51;;;;;;;19.43;14.73;;;;;;;2.80;100.00;101188.63;5025664;28;20644;-54
2021/12/20 07:04:16;;;;;;;17.67;14.77;;;;;;;2.82;100.00;101187.84;5022054;28;20199;-55
2021/12/20 07:06:42;;;;;;;18.23;14.70;;;;;;;2.82;100.00;101194.63;5028762;28;20208;-55
2021/12/20 07:09:09;;;;;;;18.90;15.00;;;;;;;2.83;100.00;101194.72;5029106;28;20249;-55
2021/12/20 07:11:34;;;;;;;17.33;13.27;;;;;;;2.85;100.00;101189.66;5027570;28;20199;-55
2021/12/20 07:14:00;;;;;;;19.00;14.37;;;;;;;2.86;100.00;101193.94;5025015;28;20183;-55
2021/12/20 07:16:25;;;;;;;18.67;14.77;;;;;;;2.87;100.00;101190.56;5026504;28;20183;-54
2021/12/20 07:18:51;;;;;;;20.83;15.10;;;;;;;2.87;100.00;101200.81;5020905;28;20188;-55
2021/12/20 07:21:17;;;;;;;17.03;13.10;;;;;;;2.86;100.00;101197.41;5028326;28;20186;-54
2021/12/20 07:23:42;;;;;;;16.77;13.47;;;;;;;2.87;100.00;101200.81;5027082;28;20183;-55
2021/12/20 07:26:11;;;;;;;16.93;13.63;;;;;;;2.87;100.00;101204.22;5020792;28;20254;-54
2021/12/20 07:28:37;;;;;;;17.93;13.93;;;;;;;2.87;100.00;101209.34;5024573;28;20679;-55
2021/12/20 07:31:02;;;;;;;18.17;14.00;;;;;;;2.88;100.00;101202.56;5022570;28;20210;-54
2021/12/20 07:33:28;;;;;;;16.73;13.77;;;;;;;2.89;100.00;101214.53;5017654;28;20644;-54
2021/12/20 07:35:53;;;;;;;18.63;15.07;;;;;;;2.90;100.00;101222.25;5020035;28;20178;-54
2021/12/20 07:38:19;;;;;;;17.53;13.87;;;;;;;2.90;100.00;101223.94;5027126;28;20223;-54
2021/12/20 07:40:47;;;;;;;17.57;13.17;;;;;;;2.92;100.00;101221.44;5020949;28;20194;-54
2021/12/20 07:43:15;;;;;;;16.37;13.30;;;;;;;2.96;100.00;101223.28;5023579;28;20195;-54
2021/12/20 07:45:47;;;;;;;17.83;13.60;;;;;;;2.99;100.00;101220.84;5023507;28;20273;-57
2021/12/20 07:48:13;;;;;;;16.27;12.80;;;;;;;3.02;100.00;101221.84;5021899;28;20748;-55
2021/12/20 07:50:39;;;;;;;17.23;13.40;;;;;;;3.04;100.00;101219.31;5026123;28;20194;-54
2021/12/20 07:53:04;;;;;;;17.43;13.57;;;;;;;3.08;100.00;101221.19;5033977;28;20520;-54
2021/12/20 07:55:30;;;;;;;15.57;12.23;;;;;;;3.11;100.00;101221.31;5014488;28;20190;-54
2021/12/20 07:57:55;;;;;;;19.93;14.77;;;;;;;3.14;100.00;101203.50;5027666;28;20215;-54
2021/12/20 08:00:20;;;;;;;18.47;13.60;;;;;;;3.17;100.00;101216.44;5026581;28;20556;-54
2021/12/20 08:02:47;;;;;;;16.13;13.30;;;;;;;3.20;100.00;101220.78;5024799;28;20553;-55
2021/12/20 08:05:14;;;;;;;16.30;13.33;;;;;;;3.24;100.00;101214.06;5021378;28;20212;-56
2021/12/20 08:07:41;;;;;;;15.10;12.63;;;;;;;3.26;100.00;101212.44;5020575;28;20202;-56
2021/12/20 08:10:08;;;;;;;15.70;12.73;;;;;;;3.32;100.00;101210.13;5026946;28;20195;-55
2021/12/20 08:12:34;;;;;;;17.10;13.77;;;;;;;3.34;100.00;101213.56;5027704;28;20330;-54
2021/12/20 08:15:02;;;;;;;14.83;12.77;;;;;;;3.37;100.00;101218.81;5027116;28;20215;-55
2021/12/20 08:17:28;;;;;;;15.43;12.97;;;;;;;3.42;100.00;101214.72;5026566;28;20222;-56
2021/12/20 08:19:54;;;;;;;16.80;13.40;;;;;;;3.47;100.00;101214.88;5028300;28;20182;-56
2021/12/20 08:22:24;;;;;;;15.97;13.50;;;;;;;3.49;100.00;101219.22;5027293;28;20180;-56
2021/12/20 08:24:49;;;;;;;16.93;13.30;;;;;;;3.53;100.00;101221.91;5025585;28;20206;-54
2021/12/20 08:27:15;;;;;;;17.03;13.37;;;;;;;3.56;100.00;101220.31;5027990;28;20247;-54
2021/12/20 08:29:40;;;;;;;16.27;13.13;;;;;;;3.59;100.00;101224.69;5011727;28;20251;-54
2021/12/20 08:32:06;;;;;;;17.50;13.30;;;;;;;3.62;100.00;101235.03;5029062;28;20279;-55
2021/12/20 08:34:31;;;;;;;15.93;13.33;;;;;;;3.62;100.00;101217.97;5049867;28;20245;-55
2021/12/20 08:36:58;;;;;;;16.60;14.03;;;;;;;3.67;100.00;101220.69;5053431;28;20493;-55
2021/12/20 08:39:23;;;;;;;16.17;13.60;;;;;;;3.70;100.00;101228.47;5034797;28;20193;-55
2021/12/20 08:41:49;;;;;;;14.93;13.10;;;;;;;3.73;100.00;101226.03;5031907;28;20194;-55
2021/12/20 08:44:14;;;;;;;16.30;13.50;;;;;;;3.77;100.00;101232.13;5031187;28;20556;-54
2021/12/20 08:46:40;;;;;;;15.57;12.53;;;;;;;3.80;100.00;101227.97;5024511;28;20214;-54
2021/12/20 08:49:07;;;;;;;16.20;12.83;;;;;;;3.86;100.00;101239.25;5030975;28;20186;-55
2021/12/20 08:51:34;;;;;;;14.53;12.60;;;;;;;3.89;100.00;101229.97;5035087;28;20195;-55
2021/12/20 08:53:59;;;;;;;14.47;12.00;;;;;;;3.95;100.00;101230.19;5030930;28;20188;-55
2021/12/20 08:56:25;;;;;;;16.77;13.80;;;;;;;4.00;100.00;101234.59;5027879;28;20529;-54
2021/12/20 08:58:50;;;;;;;14.37;12.00;;;;;;;4.04;100.00;101242.44;5031444;28;20183;-56
2021/12/20 09:01:17;;;;;;;14.20;12.53;;;;;;;4.09;100.00;101245.13;5031336;28;20650;-54
2021/12/20 09:03:44;;;;;;;15.70;12.70;;;;;;;4.14;100.00;101240.16;5030126;28;20192;-55
2021/12/20 09:06:10;;;;;;;13.67;11.87;;;;;;;4.20;100.00;101248.06;5025126;28;20223;-55
2021/12/20 09:08:35;;;;;;;12.67;11.17;;;;;;;4.24;100.00;101247.31;5028423;28;20204;-55
2021/12/20 09:11:01;;;;;;;14.80;12.40;;;;;;;4.28;100.00;101254.28;5031270;28;20330;-55
2021/12/20 09:13:27;;;;;;;13.33;11.60;;;;;;;4.34;100.00;101248.50;5029909;28;20584;-54
2021/12/20 09:15:55;;;;;;;14.27;11.83;;;;;;;4.38;100.00;101248.66;5029294;28;20179;-55
2021/12/20 09:18:20;;;;;;;13.50;11.80;;;;;;;4.45;100.00;101248.84;5031010;28;20203;-55
2021/12/20 09:20:45;;;;;;;14.43;11.93;;;;;;;4.48;100.00;101254.06;5030416;28;20179;-54
2021/12/20 09:23:13;;;;;;;15.47;12.17;;;;;;;4.50;100.00;101239.63;5028286;28;20191;-54
2021/12/20 09:25:43;;;;;;;13.93;12.17;;;;;;;4.55;100.00;101246.63;5030424;28;20258;-54
2021/12/20 09:28:10;;;;;;;13.43;11.57;;;;;;;4.64;100.00;101260.53;5030446;28;20259;-56
2021/12/20 09:30:38;;;;;;;13.17;11.70;;;;;;;4.70;100.00;101251.34;5029753;28;20187;-54
2021/12/20 09:33:04;;;;;;;15.67;12.80;;;;;;;4.75;100.00;101259.19;5030186;28;20234;-54
2021/12/20 09:35:30;;;;;;;12.70;11.23;;;;;;;4.79;100.00;101262.72;5043453;28;20643;-56
2021/12/20 09:37:56;;;;;;;15.83;13.17;;;;;;;4.76;100.00;101255.81;5024956;28;20546;-54
2021/12/20 09:40:33;;;;;;;16.80;13.80;;;;;;;4.71;100.00;101255.66;5015136;28;20185;-54
2021/12/20 09:43:01;;;;;;;17.07;14.13;;;;;;;4.67;100.00;101261.53;5029940;28;20265;-55
2021/12/20 09:45:56;;;;;;;17.20;14.77;;;;;;;4.66;100.00;101257.22;5031297;28;20211;-55
2021/12/20 09:48:24;;;;;;;20.83;15.10;;;;;;;4.62;100.00;101257.94;5018345;28;20317;-54
2021/12/20 09:50:50;;;;;;;16.90;14.20;;;;;;;4.61;100.00;101258.75;5024816;28;20218;-55
2021/12/20 09:53:15;;;;;;;18.77;14.80;;;;;;;4.62;100.00;101251.91;5040211;28;20654;-55
2021/12/20 09:55:46;;;;;;;17.73;15.13;;;;;;;4.61;100.00;101252.78;5029419;28;20188;-55
2021/12/20 09:58:12;;;;;;;18.20;14.00;;;;;;;4.58;100.00;101254.41;5029965;28;20577;-55
2021/12/20 10:00:38;;;;;;;16.87;14.33;;;;;;;4.58;100.00;101253.53;5029918;28;20195;-55
2021/12/20 10:03:04;;;;;;;17.03;14.93;;;;;;;4.63;100.00;101254.56;5034967;28;20180;-54
2021/12/20 10:05:31;;;;;;;17.87;15.23;;;;;;;4.65;100.00;101254.59;5037250;28;20204;-55
2021/12/20 10:07:58;;;;;;;16.73;14.10;;;;;;;4.68;100.00;101252.13;5037339;28;20226;-55
2021/12/20 10:10:46;;;;;;;18.27;16.10;;;;;;;4.75;100.00;101260.88;5034983;28;20179;-55
2021/12/20 10:13:22;;;;;;;17.17;13.93;;;;;;;4.81;100.00;101249.09;5012878;28;20302;-55
2021/12/20 10:15:48;;;;;;;15.83;13.97;;;;;;;4.93;100.00;101257.97;5029999;28;20221;-54
2021/12/20 10:18:14;;;;;;;17.00;14.27;;;;;;;5.00;100.00;101253.09;5020990;28;20249;-54
2021/12/20 10:20:40;;;;;;;18.20;15.17;;;;;;;5.02;100.00;101253.16;5029603;28;20328;-55
2021/12/20 10:23:23;;;;;;;20.53;17.13;;;;;;;4.96;100.00;101263.22;5029439;28;20615;-54
2021/12/20 10:26:18;;;;;;;21.13;16.03;;;;;;;4.92;100.00;101256.25;5028263;28;20204;-53
2021/12/20 10:28:44;;;;;;;17.87;14.53;;;;;;;4.88;100.00;101251.03;5025579;28;20180;-56
2021/12/20 10:31:24;;;;;;;15.43;13.77;;;;;;;4.95;100.00;101246.97;5022721;28;20191;-56
2021/12/20 10:33:59;;;;;;;17.87;14.80;;;;;;;4.99;100.00;101241.06;5016471;28;20179;-56
2021/12/20 10:36:26;;;;;;;17.43;14.83;;;;;;;5.05;100.00;101240.41;5027755;28;20274;-54
2021/12/20 10:38:59;;;;;;;17.50;14.13;;;;;;;5.18;100.00;101233.91;5016026;28;20240;-54
2021/12/20 10:41:36;;;;;;;19.10;13.93;;;;;;;5.27;100.00;101234.19;5020266;28;20220;-55
2021/12/20 10:44:14;;;;;;;16.70;13.83;;;;;;;5.39;100.00;101227.66;5019883;28;20629;-55
2021/12/20 10:46:47;;;;;;;20.13;15.37;;;;;;;5.51;100.00;101234.84;5013213;28;20208;-56
2021/12/20 10:49:14;;;;;;;17.27;14.33;;;;;;;5.59;100.00;101229.06;5027120;28;20246;-57
2021/12/20 10:51:59;;;;;;;15.43;13.30;;;;;;;5.71;100.00;101228.50;5022173;28;20227;-54
2021/12/20 10:54:30;;;;;;;16.33;14.27;;;;;;;5.80;100.00;101225.31;5019145;28;20189;-55
2021/12/20 10:56:57;;;;;;;18.03;15.13;;;;;;;5.82;100.00;101222.81;5016551;28;20232;-54
2021/12/20 10:59:25;;;;;;;18.67;15.47;;;;;;;5.78;100.00;101224.41;5022009;28;20194;-57
2021/12/20 11:04:46;;;;;;;21.40;17.67;;;;;;;5.71;100.00;101223.38;5019193;28;20191;-55
2021/12/20 11:10:07;;;;;;;21.50;16.57;;;;;;;5.75;100.00;101214.03;5008008;28;20215;-55
2021/12/20 11:12:34;;;;;;;19.50;16.00;;;;;;;5.77;100.00;101214.94;5020145;28;20857;-55
2021/12/20 11:15:08;;;;;;;20.63;17.33;;;;;;;5.77;100.00;101215.84;5019870;28;20196;-54
2021/12/20 11:17:34;;;;;;;21.17;16.93;;;;;;;5.84;100.00;101215.97;5028389;28;20628;-55
2021/12/20 11:19:59;;;;;;;19.10;15.43;;;;;;;5.92;100.00;101214.50;5020401;28;20298;-54
2021/12/20 11:22:27;;;;;;;21.67;18.70;;;;;;;5.97;100.00;101217.16;5020196;28;20219;-55
2021/12/20 11:24:53;;;;;;;21.10;16.70;;;;;;;5.97;100.00;101210.34;5016816;28;20200;-55
2021/12/20 11:27:23;;;;;;;18.73;16.63;;;;;;;5.95;100.00;101219.72;5016607;28;20216;-55
2021/12/20 11:29:51;;;;;;;22.37;17.50;;;;;;;5.89;100.00;101211.84;5022293;28;20239;-55